createdAt,value
2018-10-17T00:01:41.162Z,15.65
2018-10-17T00:04:10.059Z,11.25
2018-10-17T00:06:39.041Z,13.75
2018-10-17T00:09:09.596Z,13.65
2018-10-17T00:11:38.546Z,14.95
2018-10-17T00:14:07.910Z,13.75
2018-10-17T00:16:36.824Z,16.85
2018-10-17T00:19:05.762Z,12.45
2018-10-17T00:21:34.650Z,13.98
2018-10-17T00:24:03.630Z,14.18
2018-10-17T00:26:32.518Z,14.35
2018-10-17T00:29:01.448Z,11.78
2018-10-17T00:31:30.414Z,15.90
2018-10-17T00:33:59.354Z,12.70
2018-10-17T00:36:28.250Z,14.28
2018-10-17T00:38:57.238Z,12.45
2018-10-17T00:41:26.701Z,13.38
2018-10-17T00:43:55.584Z,12.10
2018-10-17T00:46:24.634Z,14.83
2018-10-17T00:48:53.584Z,15.08
2018-10-17T00:51:22.510Z,15.00
2018-10-17T00:53:51.446Z,10.90
2018-10-17T00:56:20.429Z,12.93
2018-10-17T00:59:02.977Z,14.10
2018-10-17T01:01:31.891Z,13.48
2018-10-17T01:04:01.030Z,11.20
2018-10-17T01:06:30.432Z,13.53
2018-10-17T01:08:59.338Z,12.15
2018-10-17T01:11:28.754Z,11.43
2018-10-17T01:13:57.695Z,17.77
2018-10-17T01:16:26.678Z,14.10
2018-10-17T01:18:55.638Z,12.90
2018-10-17T01:21:24.497Z,12.65
2018-10-17T01:23:53.542Z,12.60
2018-10-17T01:26:22.690Z,10.70
2018-10-17T01:28:52.102Z,17.30
2018-10-17T01:31:21.130Z,13.20
2018-10-17T01:33:50.190Z,13.58
2018-10-17T01:36:19.224Z,11.90
2018-10-17T01:38:48.131Z,14.10
2018-10-17T01:41:17.266Z,14.00
2018-10-17T01:43:46.047Z,12.78
2018-10-17T01:46:15.007Z,16.02
2018-10-17T01:48:43.930Z,12.40
2018-10-17T01:51:12.846Z,13.03
2018-10-17T01:53:41.766Z,11.50
2018-10-17T01:56:10.683Z,12.15
2018-10-17T01:58:39.594Z,15.90
2018-10-17T02:01:08.693Z,14.35
2018-10-17T02:03:37.578Z,12.60
2018-10-17T02:06:08.425Z,13.60
2018-10-17T02:08:37.458Z,16.60
2018-10-17T02:11:06.704Z,13.13
2018-10-17T02:13:35.681Z,15.78
2018-10-17T02:16:04.941Z,12.20
2018-10-17T02:18:33.838Z,11.97
2018-10-17T02:21:02.785Z,14.95
2018-10-17T02:23:31.698Z,16.20
2018-10-17T02:26:00.693Z,13.40
2018-10-17T02:28:29.590Z,13.62
2018-10-17T02:30:58.674Z,11.95
2018-10-17T02:33:27.542Z,16.67
2018-10-17T02:35:56.447Z,12.20
2018-10-17T02:38:25.400Z,16.05
2018-10-17T02:40:54.384Z,12.00
2018-10-17T02:43:23.310Z,13.40
2018-10-17T02:45:52.261Z,12.85
2018-10-17T02:48:21.152Z,11.22
2018-10-17T02:50:50.089Z,13.20
2018-10-17T02:53:19.101Z,13.05
2018-10-17T02:55:47.955Z,14.13
2018-10-17T02:58:16.881Z,13.00
2018-10-17T03:00:45.782Z,12.05
2018-10-17T03:03:14.700Z,14.58
2018-10-17T03:05:43.592Z,10.68
2018-10-17T03:08:12.495Z,12.90
2018-10-17T03:10:41.493Z,14.65
2018-10-17T03:13:10.475Z,14.25
2018-10-17T03:15:39.536Z,14.05
2018-10-17T03:18:08.474Z,16.42
2018-10-17T03:20:37.385Z,13.28
2018-10-17T03:23:06.634Z,14.50
2018-10-17T03:25:35.478Z,14.13
2018-10-17T03:28:04.513Z,15.23
2018-10-17T03:30:33.282Z,14.95
2018-10-17T03:33:02.214Z,15.40
2018-10-17T03:35:31.138Z,11.03
2018-10-17T03:38:00.072Z,13.80
2018-10-17T03:40:28.984Z,15.08
2018-10-17T03:42:57.904Z,14.85
2018-10-17T03:45:26.783Z,14.25
2018-10-17T03:47:55.758Z,15.60
2018-10-17T03:50:24.664Z,14.58
2018-10-17T03:52:53.651Z,11.50
2018-10-17T03:55:22.551Z,14.50
2018-10-17T03:57:51.549Z,13.90
2018-10-17T04:00:20.466Z,15.18
2018-10-17T04:02:49.423Z,11.60
2018-10-17T04:05:18.384Z,13.68
2018-10-17T04:07:47.346Z,16.07
2018-10-17T04:10:16.530Z,14.33
2018-10-17T04:12:45.423Z,14.28
2018-10-17T04:15:14.598Z,15.63
2018-10-17T04:17:43.531Z,11.95
2018-10-17T04:20:12.430Z,13.35
2018-10-17T04:22:48.651Z,18.17
2018-10-17T04:25:17.657Z,14.68
2018-10-17T04:27:46.494Z,13.18
2018-10-17T04:30:15.450Z,16.35
2018-10-17T04:32:44.430Z,12.43
2018-10-17T04:35:13.411Z,15.28
2018-10-17T04:37:42.426Z,15.15
2018-10-17T04:40:11.351Z,16.77
2018-10-17T04:42:40.248Z,13.48
2018-10-17T04:45:09.778Z,11.90
2018-10-17T04:47:38.739Z,16.40
2018-10-17T04:50:09.118Z,13.28
2018-10-17T04:52:38.327Z,15.80
2018-10-17T04:55:08.142Z,14.20
2018-10-17T04:57:37.027Z,14.60
2018-10-17T05:00:08.286Z,12.53
2018-10-17T05:02:37.239Z,17.73
2018-10-17T05:05:06.281Z,15.43
2018-10-17T05:07:35.200Z,13.83
2018-10-17T05:10:04.126Z,11.83
2018-10-17T05:12:33.026Z,16.52
2018-10-17T05:15:02.060Z,14.47
2018-10-17T05:17:31.083Z,12.00
2018-10-17T05:20:00.010Z,14.15
2018-10-17T05:22:28.898Z,14.33
2018-10-17T05:24:57.979Z,15.50
2018-10-17T05:27:26.881Z,16.67
2018-10-17T05:29:55.966Z,17.25
2018-10-17T05:32:24.771Z,14.58
2018-10-17T05:34:53.688Z,24.00
2018-10-17T05:37:22.721Z,18.98
2018-10-17T05:39:51.622Z,17.25
2018-10-17T05:42:20.555Z,19.80
2018-10-17T05:44:49.491Z,16.60
2018-10-17T05:47:18.530Z,23.12
2018-10-17T05:49:47.512Z,28.65
2018-10-17T05:52:16.406Z,22.27
2018-10-17T05:54:45.396Z,26.35
2018-10-17T05:57:14.293Z,17.55
2018-10-17T05:59:46.679Z,19.42
2018-10-17T06:02:21.410Z,23.30
2018-10-17T06:04:50.589Z,21.50
2018-10-17T06:07:19.591Z,25.48
2018-10-17T06:09:48.679Z,27.90
2018-10-17T06:12:17.797Z,29.48
2018-10-17T06:14:46.735Z,19.77
2018-10-17T06:17:15.731Z,28.27
2018-10-17T06:19:44.637Z,24.00
2018-10-17T06:22:13.669Z,18.30
2018-10-17T06:24:42.685Z,33.38
2018-10-17T06:27:11.703Z,40.60
2018-10-17T06:29:40.723Z,29.90
2018-10-17T06:32:09.727Z,30.05
2018-10-17T06:34:38.688Z,31.85
2018-10-17T06:37:07.915Z,23.38
2018-10-17T06:39:36.786Z,26.50
2018-10-17T06:42:06.354Z,39.18
2018-10-17T06:44:35.578Z,34.90
2018-10-17T06:47:04.624Z,24.50
2018-10-17T06:49:34.195Z,22.22
2018-10-17T06:52:03.187Z,23.22
2018-10-17T06:54:32.227Z,14.78
2018-10-17T06:57:01.062Z,16.70
2018-10-17T06:59:30.385Z,24.32
2018-10-17T07:02:00.648Z,20.62
2018-10-17T07:04:29.378Z,18.55
2018-10-17T07:06:58.343Z,18.25
2018-10-17T07:09:27.256Z,17.55
2018-10-17T07:11:56.155Z,21.15
2018-10-17T07:14:28.175Z,23.87
2018-10-17T07:16:57.770Z,33.28
2018-10-17T07:19:26.689Z,21.70
2018-10-17T07:21:55.697Z,16.32
2018-10-17T07:24:24.671Z,19.67
2018-10-17T07:26:53.702Z,18.67
2018-10-17T07:29:22.766Z,22.13
2018-10-17T07:31:51.568Z,21.45
2018-10-17T07:34:20.542Z,22.73
2018-10-17T07:36:49.634Z,18.67
2018-10-17T07:39:18.562Z,20.70
2018-10-17T07:41:47.488Z,19.15
2018-10-17T07:44:16.562Z,23.32
2018-10-17T07:46:45.491Z,27.93
2018-10-17T07:49:14.487Z,20.08
2018-10-17T07:51:43.402Z,28.47
2018-10-17T07:54:12.397Z,19.73
2018-10-17T07:56:41.250Z,20.00
2018-10-17T07:59:10.196Z,23.42
2018-10-17T08:01:39.118Z,22.10
2018-10-17T08:04:08.038Z,21.48
2018-10-17T08:06:36.948Z,24.02
2018-10-17T08:09:08.764Z,21.35
2018-10-17T08:11:37.809Z,19.12
2018-10-17T08:14:06.911Z,19.40
2018-10-17T08:16:35.883Z,21.77
2018-10-17T08:19:05.220Z,22.22
2018-10-17T08:21:34.229Z,21.00
2018-10-17T08:24:03.177Z,21.70
2018-10-17T08:26:32.053Z,22.58
2018-10-17T08:29:00.994Z,21.00
2018-10-17T08:31:29.910Z,19.10
2018-10-17T08:33:59.699Z,23.25
2018-10-17T08:36:28.786Z,18.57
2018-10-17T08:38:58.118Z,20.00
2018-10-17T08:41:27.060Z,18.57
2018-10-17T08:43:56.027Z,18.75
2018-10-17T08:46:25.098Z,18.95
2018-10-17T08:48:54.115Z,19.25
2018-10-17T08:51:23.019Z,20.43
2018-10-17T08:53:52.004Z,20.20
2018-10-17T08:56:20.924Z,17.95
2018-10-17T08:58:49.966Z,20.40
2018-10-17T09:01:18.923Z,19.20
2018-10-17T09:03:47.876Z,19.35
2018-10-17T09:06:16.864Z,20.30
2018-10-17T09:08:45.754Z,17.98
2018-10-17T09:11:14.751Z,22.05
2018-10-17T09:13:43.762Z,20.92
2018-10-17T09:16:12.790Z,16.37
2018-10-17T09:18:41.690Z,18.45
2018-10-17T09:21:10.813Z,23.47
2018-10-17T09:23:39.620Z,23.07
2018-10-17T09:26:08.566Z,23.10
2018-10-17T09:28:37.475Z,17.92
2018-10-17T09:31:06.395Z,20.65
2018-10-17T09:33:35.345Z,22.58
2018-10-17T09:36:04.605Z,20.08
2018-10-17T09:38:33.515Z,20.20
2018-10-17T09:41:02.559Z,17.05
2018-10-17T09:43:31.499Z,20.02
2018-10-17T09:46:00.683Z,20.77
2018-10-17T09:48:29.696Z,17.80
2018-10-17T09:50:58.622Z,19.95
2018-10-17T09:53:27.598Z,15.80
2018-10-17T09:55:56.478Z,18.67
2018-10-17T09:58:25.424Z,16.15
2018-10-17T10:00:59.494Z,18.90
2018-10-17T10:03:28.413Z,19.15
2018-10-17T10:05:57.400Z,17.85
2018-10-17T10:08:26.323Z,19.25
2018-10-17T10:10:55.254Z,17.42
2018-10-17T10:13:24.158Z,18.87
2018-10-17T10:15:53.148Z,18.90
2018-10-17T10:18:22.085Z,17.10
2018-10-17T10:20:51.038Z,16.37
2018-10-17T10:23:20.122Z,18.80
2018-10-17T10:25:48.959Z,17.20
2018-10-17T10:28:18.070Z,22.40
2018-10-17T10:30:46.823Z,19.60
2018-10-17T10:33:15.766Z,17.92
2018-10-17T10:35:44.711Z,20.20
2018-10-17T10:38:13.611Z,18.05
2018-10-17T10:40:42.564Z,19.32
2018-10-17T10:43:11.451Z,22.22
2018-10-17T10:45:40.390Z,22.22
2018-10-17T10:48:09.362Z,21.07
2018-10-17T10:50:38.223Z,20.15
2018-10-17T10:53:07.279Z,16.75
2018-10-17T10:55:36.077Z,21.27
2018-10-17T10:58:05.157Z,18.82
2018-10-17T11:00:34.331Z,21.85
2018-10-17T11:03:03.378Z,19.23
2018-10-17T11:05:32.489Z,18.60
2018-10-17T11:08:01.280Z,17.00
2018-10-17T11:10:30.218Z,22.22
2018-10-17T11:12:59.326Z,19.60
2018-10-17T11:15:28.259Z,20.20
2018-10-17T11:17:57.207Z,20.23
2018-10-17T11:20:26.149Z,19.30
2018-10-17T11:22:55.295Z,18.33
2018-10-17T11:25:24.146Z,17.70
2018-10-17T11:27:53.120Z,24.40
2018-10-17T11:30:22.624Z,15.77
2018-10-17T11:32:51.685Z,14.67
2018-10-17T11:35:20.633Z,19.73
2018-10-17T11:37:49.649Z,14.67
2018-10-17T11:40:18.650Z,14.93
2018-10-17T11:42:47.666Z,17.80
2018-10-17T11:45:16.936Z,17.90
2018-10-17T11:47:45.761Z,15.47
2018-10-17T11:50:14.611Z,14.03
2018-10-17T11:52:43.546Z,13.67
2018-10-17T11:55:12.441Z,14.67
2018-10-17T11:57:41.455Z,11.13
2018-10-17T12:00:12.095Z,15.00
2018-10-17T12:02:42.110Z,14.70
2018-10-17T12:05:14.251Z,17.27
2018-10-17T12:07:43.206Z,11.40
2018-10-17T12:10:12.147Z,11.07
2018-10-17T12:12:41.066Z,14.43
2018-10-17T12:15:13.075Z,12.83
2018-10-17T12:17:42.203Z,12.03
2018-10-17T12:20:12.931Z,10.90
2018-10-17T12:22:42.664Z,12.93
2018-10-17T12:25:12.213Z,12.97
2018-10-17T12:27:41.193Z,11.00
2018-10-17T12:30:12.476Z,13.90
2018-10-17T12:32:41.672Z,12.33
2018-10-17T12:35:11.069Z,13.37
2018-10-17T12:37:39.922Z,11.93
2018-10-17T12:40:10.242Z,12.93
2018-10-17T12:42:39.143Z,10.93
2018-10-17T12:45:08.251Z,11.23
2018-10-17T12:47:37.125Z,15.90
2018-10-17T12:50:07.227Z,10.03
2018-10-17T12:52:36.258Z,10.77
2018-10-17T12:55:06.259Z,11.80
2018-10-17T12:57:35.246Z,9.73
2018-10-17T13:00:04.660Z,11.10
2018-10-17T13:02:33.585Z,11.33
2018-10-17T13:05:02.542Z,12.30
2018-10-17T13:07:31.419Z,10.03
2018-10-17T13:10:00.595Z,12.37
2018-10-17T13:12:29.488Z,12.03
2018-10-17T13:14:58.532Z,10.13
2018-10-17T13:17:27.419Z,12.23
2018-10-17T13:19:56.350Z,14.50
2018-10-17T13:22:25.273Z,10.40
2018-10-17T13:24:54.210Z,10.23
2018-10-17T13:27:23.135Z,12.40
2018-10-17T13:29:52.071Z,11.20
2018-10-17T13:32:21.011Z,12.47
2018-10-17T13:34:49.982Z,15.97
2018-10-17T13:37:19.041Z,13.90
2018-10-17T13:39:47.866Z,9.93
2018-10-17T13:42:17.388Z,10.50
2018-10-17T13:44:46.242Z,9.83
2018-10-17T13:47:15.253Z,11.07
2018-10-17T13:49:44.204Z,12.50
2018-10-17T13:52:13.034Z,9.50
2018-10-17T13:54:42.028Z,10.30
2018-10-17T13:57:10.920Z,14.30
2018-10-17T13:59:39.978Z,9.53
2018-10-17T14:02:08.871Z,11.70
2018-10-17T14:04:37.806Z,14.20
2018-10-17T14:07:06.795Z,12.90
2018-10-17T14:09:35.633Z,12.37
2018-10-17T14:12:05.331Z,10.20
2018-10-17T14:14:34.206Z,17.33
2018-10-17T14:17:03.130Z,10.53
2018-10-17T14:19:32.130Z,10.40
2018-10-17T14:22:01.223Z,10.93
2018-10-17T14:24:30.144Z,11.73
2018-10-17T14:26:59.097Z,10.97
2018-10-17T14:29:28.036Z,9.43
2018-10-17T14:31:56.934Z,9.70
2018-10-17T14:34:25.922Z,9.30
2018-10-17T14:36:55.012Z,10.20
2018-10-17T14:39:24.061Z,10.07
2018-10-17T14:41:54.014Z,9.40
2018-10-17T14:44:22.965Z,9.03
2018-10-17T14:46:51.905Z,9.53
2018-10-17T14:49:20.810Z,9.33
2018-10-17T14:51:49.767Z,9.53
2018-10-17T14:54:18.743Z,11.00
2018-10-17T14:56:47.690Z,10.63
2018-10-17T14:59:16.653Z,12.60
2018-10-17T15:01:45.562Z,10.10
2018-10-17T15:04:14.643Z,8.73
2018-10-17T15:06:43.558Z,8.93
2018-10-17T15:09:12.585Z,8.70
2018-10-17T15:11:41.466Z,8.33
2018-10-17T15:14:10.347Z,8.57
2018-10-17T15:16:39.291Z,7.87
2018-10-17T15:19:08.158Z,9.60
2018-10-17T15:21:37.155Z,8.40
2018-10-17T15:24:06.339Z,8.37
2018-10-17T15:26:35.231Z,9.80
2018-10-17T15:29:04.151Z,8.90
2018-10-17T15:31:33.121Z,10.07
2018-10-17T15:34:02.099Z,8.13
2018-10-17T15:36:31.004Z,10.07
2018-10-17T15:38:59.946Z,8.80
2018-10-17T15:41:28.830Z,9.70
2018-10-17T15:43:57.739Z,10.00
2018-10-17T15:46:26.666Z,8.57
2018-10-17T15:48:55.624Z,8.70
2018-10-17T15:51:24.869Z,10.07
2018-10-17T15:53:53.840Z,9.57
2018-10-17T15:56:22.747Z,9.33
2018-10-17T15:58:51.701Z,8.13
2018-10-17T16:01:20.690Z,10.60
2018-10-17T16:03:49.742Z,9.50
2018-10-17T16:06:18.791Z,10.90
2018-10-17T16:08:47.674Z,11.37
2018-10-17T16:11:16.843Z,10.30
2018-10-17T16:13:48.378Z,10.17
2018-10-17T16:16:17.567Z,8.87
2018-10-17T16:18:46.494Z,11.17
2018-10-17T16:21:15.430Z,9.07
2018-10-17T16:23:44.336Z,9.68
2018-10-17T16:26:13.307Z,9.50
2018-10-17T16:28:42.670Z,10.93
2018-10-17T16:31:11.663Z,12.10
2018-10-17T16:33:40.613Z,11.00
2018-10-17T16:36:10.054Z,13.50
2018-10-17T16:38:45.293Z,16.30
2018-10-17T16:41:14.393Z,11.00
2018-10-17T16:43:43.306Z,15.45
2018-10-17T16:46:12.225Z,13.10
2018-10-17T16:48:41.170Z,15.23
2018-10-17T16:51:10.114Z,15.88
2018-10-17T16:53:39.041Z,10.18
2018-10-17T16:56:10.654Z,13.80
2018-10-17T16:58:39.821Z,12.68
2018-10-17T17:01:08.745Z,13.40
2018-10-17T17:03:37.710Z,12.03
2018-10-17T17:06:06.646Z,12.35
2018-10-17T17:08:35.536Z,16.52
2018-10-17T17:11:04.450Z,41.95
2018-10-17T17:13:33.378Z,65.92
2018-10-17T17:16:02.301Z,63.13
2018-10-17T17:18:31.209Z,60.00
2018-10-17T17:21:00.149Z,73.35
2018-10-17T17:23:29.046Z,74.15
2018-10-17T17:25:58.035Z,59.05
2018-10-17T17:28:26.946Z,139.75
2018-10-17T17:30:55.938Z,74.25
2018-10-17T17:33:24.842Z,57.62
2018-10-17T17:35:53.857Z,49.35
2018-10-17T17:38:23.123Z,35.73
2018-10-17T17:40:53.194Z,53.13
2018-10-17T17:43:22.202Z,27.98
2018-10-17T17:45:51.128Z,17.20
2018-10-17T17:48:20.041Z,22.35
2018-10-17T17:50:48.992Z,14.98
2018-10-17T17:53:18.001Z,19.27
2018-10-17T17:55:47.150Z,22.05
2018-10-17T17:58:16.192Z,18.30
2018-10-17T18:00:45.234Z,25.32
2018-10-17T18:03:15.563Z,19.92
2018-10-17T18:05:45.174Z,18.80
2018-10-17T18:08:14.751Z,10.98
2018-10-17T18:10:46.021Z,15.60
2018-10-17T18:13:15.112Z,18.87
2018-10-17T18:15:46.874Z,16.02
2018-10-17T18:18:17.992Z,16.82
2018-10-17T18:20:49.615Z,13.60
2018-10-17T18:23:21.971Z,15.10
2018-10-17T18:25:51.491Z,15.10
2018-10-17T18:28:20.561Z,15.85
2018-10-17T18:30:49.819Z,14.65
2018-10-17T18:33:19.488Z,18.25
2018-10-17T18:35:50.608Z,18.60
2018-10-17T18:38:19.623Z,13.70
2018-10-17T18:40:49.364Z,15.83
2018-10-17T18:43:20.549Z,15.78
2018-10-17T18:45:49.847Z,13.85
2018-10-17T18:48:19.879Z,14.47
2018-10-17T18:50:49.240Z,17.92
2018-10-17T18:53:18.210Z,16.17
2018-10-17T18:55:48.103Z,17.00
2018-10-17T18:58:16.955Z,15.70
2018-10-17T19:00:45.958Z,14.45
2018-10-17T19:03:14.970Z,14.03
2018-10-17T19:05:43.859Z,17.55
2018-10-17T19:08:12.904Z,14.55
2018-10-17T19:10:41.738Z,18.80
2018-10-17T19:13:10.662Z,20.95
2018-10-17T19:15:39.703Z,15.58
2018-10-17T19:18:09.021Z,15.70
2018-10-17T19:20:37.970Z,13.65
2018-10-17T19:23:06.901Z,17.80
2018-10-17T19:25:35.799Z,20.37
2018-10-17T19:28:04.928Z,14.68
2018-10-17T19:30:33.830Z,17.52
2018-10-17T19:33:02.919Z,17.65
2018-10-17T19:35:33.262Z,14.50
2018-10-17T19:38:04.078Z,18.65
2018-10-17T19:40:33.066Z,17.40
2018-10-17T19:43:02.081Z,13.75
2018-10-17T19:45:31.303Z,13.38
2018-10-17T19:48:00.729Z,16.95
2018-10-17T19:50:29.691Z,14.90
2018-10-17T19:52:58.678Z,18.25
2018-10-17T19:55:27.623Z,18.17
2018-10-17T19:57:56.577Z,21.10
2018-10-17T20:00:25.530Z,15.60
2018-10-17T20:02:54.434Z,16.60
2018-10-17T20:05:23.462Z,16.20
2018-10-17T20:07:52.879Z,17.75
2018-10-17T20:10:22.402Z,14.80
2018-10-17T20:12:52.140Z,19.02
2018-10-17T20:15:23.948Z,16.67
2018-10-17T20:17:53.084Z,15.85
2018-10-17T20:20:22.175Z,15.58
2018-10-17T20:22:51.452Z,18.30
2018-10-17T20:25:20.501Z,16.25
2018-10-17T20:27:49.531Z,15.72
2018-10-17T20:30:18.518Z,18.02
2018-10-17T20:32:47.436Z,20.17
2018-10-17T20:35:16.564Z,17.40
2018-10-17T20:37:45.814Z,15.20
2018-10-17T20:40:15.625Z,16.80
2018-10-17T20:42:44.701Z,16.75
2018-10-17T20:45:13.699Z,18.52
2018-10-17T20:47:42.647Z,18.05
2018-10-17T20:50:11.945Z,18.37
2018-10-17T20:52:40.702Z,17.87
2018-10-17T20:55:11.097Z,17.00
2018-10-17T20:57:39.981Z,16.75
2018-10-17T21:00:08.949Z,17.70
2018-10-17T21:02:38.877Z,27.05
2018-10-17T21:05:08.567Z,18.70
2018-10-17T21:07:37.609Z,16.67
2018-10-17T21:10:07.466Z,26.25
2018-10-17T21:12:36.527Z,21.55
2018-10-17T21:15:06.663Z,16.25
2018-10-17T21:17:35.575Z,18.42
2018-10-17T21:20:04.723Z,19.90
2018-10-17T21:22:33.626Z,16.00
2018-10-17T21:25:02.565Z,17.27
2018-10-17T21:27:32.634Z,18.32
2018-10-17T21:30:01.585Z,20.20
2018-10-17T21:32:30.622Z,17.75
2018-10-17T21:34:59.575Z,17.73
2018-10-17T21:37:28.523Z,19.90
2018-10-17T21:39:57.442Z,19.27
2018-10-17T21:42:26.390Z,18.05
2018-10-17T21:44:56.310Z,16.55
2018-10-17T21:47:25.338Z,17.05
2018-10-17T21:49:54.184Z,20.82
2018-10-17T21:52:23.539Z,16.55
2018-10-17T21:54:52.459Z,21.33
2018-10-17T21:57:21.523Z,20.02
2018-10-17T21:59:50.443Z,18.85
2018-10-17T22:02:19.437Z,18.15
2018-10-17T22:04:48.361Z,19.30
2018-10-17T22:07:17.333Z,19.67
2018-10-17T22:09:46.300Z,19.95
2018-10-17T22:12:15.158Z,24.10
2018-10-17T22:14:44.124Z,18.15
2018-10-17T22:17:13.057Z,17.25
2018-10-17T22:19:43.009Z,16.65
2018-10-17T22:22:11.863Z,18.15
2018-10-17T22:24:40.783Z,17.07
2018-10-17T22:27:09.738Z,18.02
2018-10-17T22:29:38.630Z,19.30
2018-10-17T22:32:07.555Z,16.95
2018-10-17T22:34:36.450Z,15.78
2018-10-17T22:37:05.908Z,16.57
2018-10-17T22:39:34.815Z,15.88
2018-10-17T22:42:03.814Z,14.70
2018-10-17T22:44:32.711Z,18.10
2018-10-17T22:47:01.655Z,16.75
2018-10-17T22:49:30.566Z,18.00
2018-10-17T22:52:00.835Z,15.18
2018-10-17T22:54:29.883Z,19.90
2018-10-17T22:56:58.795Z,16.17
2018-10-17T22:59:27.900Z,16.42
2018-10-17T23:01:56.926Z,14.65
2018-10-17T23:04:25.814Z,20.48
2018-10-17T23:06:54.748Z,16.57
2018-10-17T23:09:23.667Z,18.42
2018-10-17T23:11:52.642Z,17.80
2018-10-17T23:14:21.565Z,14.75
2018-10-17T23:16:50.474Z,19.05
2018-10-17T23:19:19.414Z,19.23
2018-10-17T23:21:48.362Z,19.82
2018-10-17T23:24:17.338Z,18.35
2018-10-17T23:26:46.259Z,19.92
2018-10-17T23:29:15.199Z,16.23
2018-10-17T23:31:44.113Z,15.35
2018-10-17T23:34:13.062Z,16.52
2018-10-17T23:36:42.047Z,16.25
2018-10-17T23:39:10.982Z,15.25
2018-10-17T23:41:40.490Z,16.97
2018-10-17T23:44:09.429Z,18.65
2018-10-17T23:46:38.334Z,18.25
2018-10-17T23:49:07.273Z,16.80
2018-10-17T23:51:36.175Z,16.40
2018-10-17T23:54:05.174Z,17.70
2018-10-17T23:56:34.022Z,14.78
2018-10-17T23:59:02.954Z,14.90
